Time;durP1;ratioP1;P1;durP2;ratioP2;P2;SDS_P1;SDS_P2;PMS_P1;PMS_P2;Temp;Humidity;BMP_temperature;BMP_pressure;BME280_temperature;BME280_humidity;BME280_pressure;Samples;Min_cycle;Max_cycle;Signal;HPM_P1;HPM_P2
2023/03/01 00:00:46;;;;;;;6.88;4.45;;;;;;;;;;5033667;28;20219;-75
2023/03/01 00:03:14;;;;;;;7.63;5.30;;;;;;;;;;5033229;28;20282;-75
2023/03/01 00:05:45;;;;;;;4.90;4.20;;;;;;;;;;5034228;28;20207;-75
2023/03/01 00:08:12;;;;;;;6.18;4.97;;;;;;;;;;5034099;28;20195;-75
2023/03/01 00:10:39;;;;;;;7.05;4.75;;;;;;;;;;5040212;28;20652;-73
2023/03/01 00:13:06;;;;;;;9.20;5.07;;;;;;;;;;5063671;22;20222;-74
2023/03/01 00:15:34;;;;;;;8.57;5.03;;;;;;;;;;5054179;28;20210;-74
2023/03/01 00:18:01;;;;;;;9.57;6.40;;;;;;;;;;5053540;28;20749;-74
2023/03/01 00:20:30;;;;;;;8.95;6.18;;;;;;;;;;5053225;28;20195;-74
2023/03/01 00:22:57;;;;;;;11.02;5.95;;;;;;;;;;5053415;28;20592;-74
2023/03/01 00:25:24;;;;;;;8.45;5.55;;;;;;;;;;5039409;28;20195;-74
2023/03/01 00:27:51;;;;;;;11.88;6.80;;;;;;;;;;5033156;28;20206;-74
2023/03/01 00:30:18;;;;;;;9.23;5.90;;;;;;;;;;5033889;28;20683;-74
2023/03/01 00:32:45;;;;;;;10.35;6.20;;;;;;;;;;5038762;28;20215;-74
2023/03/01 00:35:12;;;;;;;9.55;5.90;;;;;;;;;;5053716;28;20198;-74
2023/03/01 00:37:42;;;;;;;11.57;6.07;;;;;;;;;;5051054;28;20195;-74
2023/03/01 00:40:10;;;;;;;8.65;5.60;;;;;;;;;;5032955;28;20615;-74
2023/03/01 00:42:37;;;;;;;9.20;5.80;;;;;;;;;;5039128;28;20288;-74
2023/03/01 00:45:05;;;;;;;12.07;5.88;;;;;;;;;;5053328;28;20240;-76
2023/03/01 00:47:32;;;;;;;7.22;4.97;;;;;;;;;;5049745;28;20676;-75
2023/03/01 00:49:59;;;;;;;7.97;5.32;;;;;;;;;;5032740;28;20203;-74
2023/03/01 00:52:26;;;;;;;6.25;4.78;;;;;;;;;;5032574;28;20219;-74
2023/03/01 00:54:55;;;;;;;7.18;5.25;;;;;;;;;;5052317;28;20482;-74
2023/03/01 00:57:22;;;;;;;6.88;4.97;;;;;;;;;;5052785;28;20580;-74
2023/03/01 00:59:49;;;;;;;7.80;5.57;;;;;;;;;;5049249;28;20590;-74
2023/03/01 01:02:16;;;;;;;7.65;3.90;;;;;;;;;;5033110;28;20717;-75
2023/03/01 01:04:43;;;;;;;11.15;5.20;;;;;;;;;;5041744;28;20574;-74
2023/03/01 01:07:10;;;;;;;6.05;5.05;;;;;;;;;;5052534;28;20195;-74
2023/03/01 01:09:38;;;;;;;5.72;4.45;;;;;;;;;;5052399;28;20199;-74
2023/03/01 01:12:06;;;;;;;7.93;5.32;;;;;;;;;;5052336;28;20768;-74
2023/03/01 01:14:33;;;;;;;6.47;4.50;;;;;;;;;;5048100;28;20202;-74
2023/03/01 01:17:00;;;;;;;11.18;5.95;;;;;;;;;;5032659;28;20221;-74
2023/03/01 01:19:28;;;;;;;12.95;5.88;;;;;;;;;;5032923;28;20223;-75
2023/03/01 01:21:55;;;;;;;10.40;5.15;;;;;;;;;;5044145;28;20222;-75
2023/03/01 01:24:22;;;;;;;7.53;5.10;;;;;;;;;;5052818;28;20207;-74
2023/03/01 01:26:49;;;;;;;7.45;4.85;;;;;;;;;;5050318;28;20195;-74
2023/03/01 01:29:17;;;;;;;9.85;5.88;;;;;;;;;;5052700;28;20218;-75
2023/03/01 01:31:45;;;;;;;8.82;5.70;;;;;;;;;;5049170;28;20225;-74
2023/03/01 01:34:14;;;;;;;9.48;5.63;;;;;;;;;;5051649;28;20199;-74
2023/03/01 01:36:41;;;;;;;12.70;5.68;;;;;;;;;;5052202;28;20206;-74
2023/03/01 01:39:12;;;;;;;6.10;4.78;;;;;;;;;;5052166;28;20229;-74
2023/03/01 01:41:40;;;;;;;7.78;6.10;;;;;;;;;;5052214;28;20581;-75
2023/03/01 01:44:12;;;;;;;8.00;4.90;;;;;;;;;;5052275;28;20209;-74
2023/03/01 01:46:42;;;;;;;6.07;4.80;;;;;;;;;;5049957;28;20194;-74
2023/03/01 01:49:15;;;;;;;6.10;4.95;;;;;;;;;;5052305;28;20206;-75
2023/03/01 01:51:43;;;;;;;5.75;5.18;;;;;;;;;;5050674;28;20227;-75
2023/03/01 01:54:13;;;;;;;11.00;5.78;;;;;;;;;;5031601;28;20203;-74
2023/03/01 01:56:43;;;;;;;9.30;5.80;;;;;;;;;;5032089;28;20210;-75
2023/03/01 01:59:11;;;;;;;7.93;5.22;;;;;;;;;;5032050;28;20211;-75
2023/03/01 02:01:38;;;;;;;8.65;5.70;;;;;;;;;;5030249;28;20294;-74
2023/03/01 02:04:07;;;;;;;7.80;5.35;;;;;;;;;;5031806;28;20207;-74
2023/03/01 02:06:35;;;;;;;7.18;5.10;;;;;;;;;;5041844;28;20198;-74
2023/03/01 02:09:05;;;;;;;7.80;5.40;;;;;;;;;;5051980;28;20201;-75
2023/03/01 02:11:34;;;;;;;9.02;6.25;;;;;;;;;;5048806;28;20226;-75
2023/03/01 02:14:01;;;;;;;6.68;4.80;;;;;;;;;;5047561;28;20203;-74
2023/03/01 02:16:28;;;;;;;8.23;5.30;;;;;;;;;;5034397;28;20706;-74
2023/03/01 02:18:56;;;;;;;8.88;4.78;;;;;;;;;;5048824;28;20210;-74
2023/03/01 02:21:31;;;;;;;7.75;5.50;;;;;;;;;;5031111;28;20226;-74
2023/03/01 02:23:59;;;;;;;7.78;5.15;;;;;;;;;;5030761;28;20652;-75
2023/03/01 02:26:31;;;;;;;7.88;6.20;;;;;;;;;;5030330;28;20196;-74
2023/03/01 02:29:00;;;;;;;6.70;4.88;;;;;;;;;;5032236;28;20625;-75
2023/03/01 02:31:42;;;;;;;7.88;4.93;;;;;;;;;;5031360;28;20215;-75
2023/03/01 02:34:11;;;;;;;7.63;5.75;;;;;;;;;;5033285;28;20285;-75
2023/03/01 02:36:39;;;;;;;6.95;5.47;;;;;;;;;;5052065;28;20198;-75
2023/03/01 02:39:14;;;;;;;5.75;4.82;;;;;;;;;;5051800;28;20606;-75
2023/03/01 02:41:42;;;;;;;6.95;5.55;;;;;;;;;;5033027;28;20217;-74
2023/03/01 02:44:11;;;;;;;6.68;4.90;;;;;;;;;;5031869;28;20553;-75
2023/03/01 02:46:43;;;;;;;8.60;5.93;;;;;;;;;;5031433;28;20226;-75
2023/03/01 02:49:24;;;;;;;8.80;5.88;;;;;;;;;;5030939;28;20191;-74
2023/03/01 02:52:03;;;;;;;8.85;5.50;;;;;;;;;;5032011;28;20229;-74
2023/03/01 02:54:32;;;;;;;6.43;5.25;;;;;;;;;;5031487;28;20198;-73
2023/03/01 02:57:00;;;;;;;8.57;5.82;;;;;;;;;;5044994;28;20222;-74
2023/03/01 02:59:30;;;;;;;6.63;5.82;;;;;;;;;;5029890;28;20219;-74
2023/03/01 03:01:57;;;;;;;7.45;5.47;;;;;;;;;;5032436;28;20800;-74
2023/03/01 03:04:25;;;;;;;8.07;5.35;;;;;;;;;;5035545;28;20195;-74
2023/03/01 03:06:52;;;;;;;5.68;4.90;;;;;;;;;;5042593;28;20201;-74
2023/03/01 03:09:20;;;;;;;8.70;4.80;;;;;;;;;;5055328;28;20191;-74
2023/03/01 03:11:47;;;;;;;8.75;5.30;;;;;;;;;;5054614;28;20226;-76
2023/03/01 03:14:16;;;;;;;7.55;5.45;;;;;;;;;;5055213;28;20201;-75
2023/03/01 03:16:45;;;;;;;5.88;4.57;;;;;;;;;;5052824;28;20324;-75
2023/03/01 03:19:12;;;;;;;9.50;5.47;;;;;;;;;;5053044;28;20217;-75
2023/03/01 03:21:39;;;;;;;9.75;5.60;;;;;;;;;;5054437;28;20221;-74
2023/03/01 03:24:07;;;;;;;10.07;5.32;;;;;;;;;;5050504;28;20199;-74
2023/03/01 03:26:34;;;;;;;7.90;5.38;;;;;;;;;;5055093;28;20209;-74
2023/03/01 03:29:01;;;;;;;9.57;5.97;;;;;;;;;;5053466;28;20201;-74
2023/03/01 03:31:29;;;;;;;8.70;5.20;;;;;;;;;;5034790;28;20586;-74
2023/03/01 03:33:58;;;;;;;8.13;5.45;;;;;;;;;;5035108;28;20576;-74
2023/03/01 03:36:25;;;;;;;6.93;5.30;;;;;;;;;;5040580;28;20199;-74
2023/03/01 03:38:52;;;;;;;12.43;5.78;;;;;;;;;;5034356;28;20213;-74
2023/03/01 03:41:20;;;;;;;7.30;5.63;;;;;;;;;;5040679;28;20230;-74
2023/03/01 03:43:48;;;;;;;8.32;5.80;;;;;;;;;;5054994;28;20198;-74
2023/03/01 03:46:16;;;;;;;6.93;5.22;;;;;;;;;;5054497;28;20201;-74
2023/03/01 03:48:44;;;;;;;8.35;5.68;;;;;;;;;;5054617;28;20198;-74
2023/03/01 03:51:13;;;;;;;9.75;5.65;;;;;;;;;;5054219;28;20219;-74
2023/03/01 03:53:41;;;;;;;10.02;6.55;;;;;;;;;;5053409;28;20548;-75
2023/03/01 03:56:08;;;;;;;9.43;5.93;;;;;;;;;;5053320;28;20205;-75
2023/03/01 03:58:35;;;;;;;8.10;5.63;;;;;;;;;;5054768;28;20205;-74
2023/03/01 04:01:02;;;;;;;9.27;4.80;;;;;;;;;;5036873;28;20227;-74
2023/03/01 04:03:30;;;;;;;8.15;6.60;;;;;;;;;;5034038;28;20715;-74
2023/03/01 04:05:59;;;;;;;10.02;6.72;;;;;;;;;;5034116;28;20215;-74
2023/03/01 04:08:27;;;;;;;9.50;6.22;;;;;;;;;;5047860;28;20601;-75
2023/03/01 04:10:59;;;;;;;11.95;6.88;;;;;;;;;;5053974;28;20190;-74
2023/03/01 04:13:26;;;;;;;9.63;6.60;;;;;;;;;;5040796;28;20202;-74
2023/03/01 04:15:54;;;;;;;11.40;6.45;;;;;;;;;;5033846;28;20257;-75
2023/03/01 04:18:22;;;;;;;6.82;5.43;;;;;;;;;;5038019;28;20476;-74
2023/03/01 04:20:51;;;;;;;10.70;6.90;;;;;;;;;;5054162;28;20219;-74
2023/03/01 04:23:20;;;;;;;9.20;6.25;;;;;;;;;;5053579;28;20510;-74
2023/03/01 04:25:53;;;;;;;8.35;6.70;;;;;;;;;;5052671;28;20198;-74
2023/03/01 04:28:20;;;;;;;11.07;7.30;;;;;;;;;;5053835;28;20202;-74
2023/03/01 04:30:47;;;;;;;9.35;7.00;;;;;;;;;;5033809;28;20209;-74
2023/03/01 04:33:15;;;;;;;10.65;7.03;;;;;;;;;;5033129;28;20568;-75
2023/03/01 04:35:42;;;;;;;11.75;7.18;;;;;;;;;;5032960;28;20572;-75
2023/03/01 04:38:09;;;;;;;11.55;8.20;;;;;;;;;;5045865;28;20199;-74
2023/03/01 04:40:36;;;;;;;11.80;7.70;;;;;;;;;;5037849;28;20211;-73
2023/03/01 04:43:05;;;;;;;8.40;6.60;;;;;;;;;;5042459;28;20222;-74
2023/03/01 04:45:34;;;;;;;14.63;8.63;;;;;;;;;;5036199;28;20214;-75
2023/03/01 04:48:01;;;;;;;10.40;6.15;;;;;;;;;;5051970;28;20203;-74
2023/03/01 04:50:28;;;;;;;13.55;8.50;;;;;;;;;;5053339;28;20191;-75
2023/03/01 04:52:58;;;;;;;11.50;6.57;;;;;;;;;;5052270;28;20730;-74
2023/03/01 04:55:25;;;;;;;12.32;7.75;;;;;;;;;;5042755;28;20200;-74
2023/03/01 04:57:52;;;;;;;9.75;6.55;;;;;;;;;;5034138;28;20478;-74
2023/03/01 05:00:21;;;;;;;11.77;7.65;;;;;;;;;;5032217;28;20235;-74
2023/03/01 05:02:52;;;;;;;14.13;8.45;;;;;;;;;;5034102;28;20309;-75
2023/03/01 05:05:20;;;;;;;10.43;6.78;;;;;;;;;;5053323;28;20206;-74
2023/03/01 05:07:47;;;;;;;12.85;7.63;;;;;;;;;;5053122;28;20199;-75
2023/03/01 05:10:14;;;;;;;12.85;7.78;;;;;;;;;;5050895;28;20198;-75
2023/03/01 05:12:41;;;;;;;14.05;7.47;;;;;;;;;;5052160;28;20317;-75
2023/03/01 05:15:09;;;;;;;12.75;7.95;;;;;;;;;;5038829;28;20196;-74
2023/03/01 05:17:37;;;;;;;12.05;8.00;;;;;;;;;;5032618;28;20199;-75
2023/03/01 05:20:08;;;;;;;14.23;7.75;;;;;;;;;;5032649;28;20220;-74
2023/03/01 05:22:35;;;;;;;11.00;6.82;;;;;;;;;;5032106;28;20277;-75
2023/03/01 05:25:02;;;;;;;10.35;6.90;;;;;;;;;;5032684;28;20199;-74
2023/03/01 05:27:29;;;;;;;13.75;7.18;;;;;;;;;;5032980;28;20200;-74
2023/03/01 05:29:56;;;;;;;10.07;7.65;;;;;;;;;;5031394;28;20207;-74
2023/03/01 05:32:23;;;;;;;12.75;7.82;;;;;;;;;;5030577;28;20215;-74
2023/03/01 05:34:54;;;;;;;10.95;6.80;;;;;;;;;;5037427;28;20205;-74
2023/03/01 05:37:22;;;;;;;13.05;8.07;;;;;;;;;;5052510;28;20206;-74
2023/03/01 05:39:50;;;;;;;11.48;8.80;;;;;;;;;;5051110;28;20218;-74
2023/03/01 05:42:17;;;;;;;14.63;9.05;;;;;;;;;;5052273;28;20300;-74
2023/03/01 05:44:45;;;;;;;9.77;6.32;;;;;;;;;;5049978;28;20198;-74
2023/03/01 05:47:12;;;;;;;11.25;8.05;;;;;;;;;;5037389;28;20199;-74
2023/03/01 05:49:39;;;;;;;13.63;7.35;;;;;;;;;;5032074;28;20199;-74
2023/03/01 05:52:07;;;;;;;12.05;8.43;;;;;;;;;;5030239;28;20219;-74
2023/03/01 05:54:34;;;;;;;10.07;7.35;;;;;;;;;;5046539;28;20582;-74
2023/03/01 05:57:01;;;;;;;12.82;7.75;;;;;;;;;;5052377;28;20200;-74
2023/03/01 05:59:28;;;;;;;11.07;7.72;;;;;;;;;;5039683;28;20211;-74
2023/03/01 06:01:56;;;;;;;9.10;7.00;;;;;;;;;;5031222;28;20225;-73
2023/03/01 06:04:23;;;;;;;11.80;7.47;;;;;;;;;;5050250;28;20195;-74
2023/03/01 06:06:50;;;;;;;11.57;8.15;;;;;;;;;;5050959;28;20205;-74
2023/03/01 06:09:18;;;;;;;14.18;8.88;;;;;;;;;;5051630;28;20198;-74
2023/03/01 06:11:45;;;;;;;15.60;8.40;;;;;;;;;;5065640;22;20582;-76
2023/03/01 06:14:14;;;;;;;14.57;8.35;;;;;;;;;;5051663;28;20198;-75
2023/03/01 06:16:41;;;;;;;13.40;7.38;;;;;;;;;;5051848;28;20234;-75
2023/03/01 06:19:08;;;;;;;11.75;7.97;;;;;;;;;;5050137;28;20210;-75
2023/03/01 06:21:35;;;;;;;10.80;7.53;;;;;;;;;;5051332;28;20687;-75
2023/03/01 06:24:02;;;;;;;14.07;8.05;;;;;;;;;;5052040;28;20204;-75
2023/03/01 06:26:31;;;;;;;13.73;7.85;;;;;;;;;;5051151;28;20742;-75
2023/03/01 06:28:58;;;;;;;12.35;7.40;;;;;;;;;;5051891;28;20630;-75
2023/03/01 06:31:25;;;;;;;16.33;8.02;;;;;;;;;;5051406;28;20191;-75
2023/03/01 06:33:52;;;;;;;11.38;8.32;;;;;;;;;;5031668;28;20214;-78
2023/03/01 06:36:20;;;;;;;12.93;8.18;;;;;;;;;;5032666;28;20203;-78
2023/03/01 06:38:48;;;;;;;12.52;7.22;;;;;;;;;;5036030;28;20242;-78
2023/03/01 06:41:15;;;;;;;11.82;9.40;;;;;;;;;;5042211;28;20630;-78
2023/03/01 06:43:43;;;;;;;11.68;8.00;;;;;;;;;;5050182;28;20618;-78
2023/03/01 06:46:11;;;;;;;10.38;7.25;;;;;;;;;;5067704;28;20285;-78
2023/03/01 06:48:38;;;;;;;11.57;8.85;;;;;;;;;;5051840;28;20198;-78
2023/03/01 06:51:05;;;;;;;12.32;7.68;;;;;;;;;;5051738;28;20287;-78
2023/03/01 06:53:32;;;;;;;12.93;7.38;;;;;;;;;;5049557;28;20753;-78
2023/03/01 06:56:00;;;;;;;10.50;7.50;;;;;;;;;;5052132;28;20289;-77
2023/03/01 06:58:27;;;;;;;14.23;8.40;;;;;;;;;;5055083;28;20191;-77
2023/03/01 07:00:55;;;;;;;11.20;7.82;;;;;;;;;;5054967;28;20218;-78
2023/03/01 07:03:22;;;;;;;10.90;7.50;;;;;;;;;;5036910;28;20215;-76
2023/03/01 07:05:52;;;;;;;9.20;6.47;;;;;;;;;;5055350;28;20209;-78
2023/03/01 07:08:19;;;;;;;16.65;8.07;;;;;;;;;;5053508;28;20272;-76
2023/03/01 07:10:46;;;;;;;18.00;7.55;;;;;;;;;;5052161;28;20199;-78
2023/03/01 07:13:13;;;;;;;13.55;9.20;;;;;;;;;;5054089;28;20313;-76
2023/03/01 07:15:41;;;;;;;13.98;8.20;;;;;;;;;;5053316;28;20205;-77
2023/03/01 07:18:10;;;;;;;13.18;8.77;;;;;;;;;;5054588;28;20198;-77
2023/03/01 07:20:37;;;;;;;12.82;7.93;;;;;;;;;;5053691;28;20774;-76
2023/03/01 07:23:04;;;;;;;13.00;8.35;;;;;;;;;;5051294;28;20229;-76
2023/03/01 07:25:31;;;;;;;11.85;8.80;;;;;;;;;;5054816;28;20197;-75
2023/03/01 07:27:59;;;;;;;13.48;8.68;;;;;;;;;;5054772;28;20681;-74
2023/03/01 07:30:28;;;;;;;9.70;6.72;;;;;;;;;;5054042;28;20202;-74
2023/03/01 07:32:55;;;;;;;13.43;9.00;;;;;;;;;;5054438;28;20268;-74
2023/03/01 07:35:24;;;;;;;15.20;7.60;;;;;;;;;;5054956;28;20198;-75
2023/03/01 07:37:51;;;;;;;14.00;9.02;;;;;;;;;;5052036;28;20281;-75
2023/03/01 07:40:18;;;;;;;11.55;7.90;;;;;;;;;;5039920;28;20703;-75
2023/03/01 07:42:45;;;;;;;12.63;8.90;;;;;;;;;;5052974;28;20778;-76
2023/03/01 07:45:13;;;;;;;10.48;7.78;;;;;;;;;;5054104;28;20198;-75
2023/03/01 07:47:40;;;;;;;12.65;8.63;;;;;;;;;;5051871;28;20297;-76
2023/03/01 07:50:07;;;;;;;14.25;8.43;;;;;;;;;;5051056;28;20206;-76
2023/03/01 07:52:47;;;;;;;16.80;9.15;;;;;;;;;;5054212;28;20240;-76
2023/03/01 07:55:14;;;;;;;12.05;8.13;;;;;;;;;;5051784;28;20656;-76
2023/03/01 07:57:41;;;;;;;14.95;9.27;;;;;;;;;;5053912;28;20194;-76
2023/03/01 08:00:09;;;;;;;17.27;7.72;;;;;;;;;;5054345;28;20194;-76
2023/03/01 08:02:36;;;;;;;13.38;8.77;;;;;;;;;;5051120;28;20219;-76
2023/03/01 08:05:04;;;;;;;15.23;9.25;;;;;;;;;;5044138;28;20211;-76
2023/03/01 08:07:31;;;;;;;13.40;8.70;;;;;;;;;;5052261;28;20199;-75
2023/03/01 08:09:59;;;;;;;15.43;9.20;;;;;;;;;;5040602;28;20556;-74
2023/03/01 08:12:28;;;;;;;13.55;9.25;;;;;;;;;;5046099;28;20594;-74
2023/03/01 08:14:55;;;;;;;15.07;10.25;;;;;;;;;;5053796;28;20678;-75
2023/03/01 08:17:22;;;;;;;15.20;7.93;;;;;;;;;;5052218;28;20194;-75
2023/03/01 08:19:49;;;;;;;16.40;9.30;;;;;;;;;;5051611;28;20207;-74
2023/03/01 08:22:16;;;;;;;10.60;8.77;;;;;;;;;;5047634;28;20218;-74
2023/03/01 08:24:43;;;;;;;16.48;9.52;;;;;;;;;;5041819;28;20205;-75
2023/03/01 08:27:13;;;;;;;10.52;8.68;;;;;;;;;;5053203;28;20211;-74
2023/03/01 08:29:40;;;;;;;13.93;8.77;;;;;;;;;;5057192;28;20190;-74
2023/03/01 08:32:07;;;;;;;14.68;9.40;;;;;;;;;;5063184;28;20225;-76
2023/03/01 08:34:35;;;;;;;14.55;9.27;;;;;;;;;;5053113;28;20228;-75
2023/03/01 08:37:02;;;;;;;14.50;8.48;;;;;;;;;;5051516;28;20241;-75
2023/03/01 08:39:29;;;;;;;17.05;9.95;;;;;;;;;;5052305;28;20686;-75
2023/03/01 08:41:57;;;;;;;13.30;8.48;;;;;;;;;;5050378;28;20226;-75
2023/03/01 08:44:25;;;;;;;12.90;10.13;;;;;;;;;;5051466;28;20790;-75
2023/03/01 08:46:54;;;;;;;14.00;9.98;;;;;;;;;;5051639;28;20205;-76
2023/03/01 08:49:21;;;;;;;13.40;9.50;;;;;;;;;;5044943;28;20572;-75
2023/03/01 08:51:49;;;;;;;13.50;8.65;;;;;;;;;;5051874;28;20215;-75
2023/03/01 08:54:17;;;;;;;14.48;9.55;;;;;;;;;;5050545;28;20195;-75
2023/03/01 08:56:45;;;;;;;16.42;9.98;;;;;;;;;;5047781;28;20202;-75
2023/03/01 08:59:12;;;;;;;15.52;10.05;;;;;;;;;;5048964;28;20690;-75
2023/03/01 09:01:43;;;;;;;11.32;8.18;;;;;;;;;;5050563;28;20721;-75
2023/03/01 09:04:10;;;;;;;13.27;8.98;;;;;;;;;;5051219;28;20294;-75
2023/03/01 09:06:37;;;;;;;14.25;9.50;;;;;;;;;;5052646;28;20190;-75
2023/03/01 09:09:05;;;;;;;14.10;8.82;;;;;;;;;;5050404;28;20209;-75
2023/03/01 09:11:33;;;;;;;14.98;8.80;;;;;;;;;;5051094;28;20574;-76
2023/03/01 09:14:00;;;;;;;14.63;10.18;;;;;;;;;;5050085;28;20198;-75
2023/03/01 09:16:29;;;;;;;14.25;9.30;;;;;;;;;;5051697;28;20643;-75
2023/03/01 09:18:58;;;;;;;16.65;9.20;;;;;;;;;;5052946;28;20565;-75
2023/03/01 09:21:25;;;;;;;14.50;9.20;;;;;;;;;;5042844;28;20596;-75
2023/03/01 09:23:52;;;;;;;13.18;8.90;;;;;;;;;;5046329;28;20203;-75
2023/03/01 09:26:21;;;;;;;15.75;8.80;;;;;;;;;;5050140;28;20218;-75
2023/03/01 09:28:49;;;;;;;12.95;8.48;;;;;;;;;;5051585;28;20201;-76
2023/03/01 09:31:17;;;;;;;15.48;9.00;;;;;;;;;;5049177;28;20198;-76
2023/03/01 09:33:44;;;;;;;12.88;8.82;;;;;;;;;;5036628;28;20664;-75
2023/03/01 09:36:15;;;;;;;11.88;8.25;;;;;;;;;;5041611;28;20201;-73
2023/03/01 09:38:42;;;;;;;9.45;7.68;;;;;;;;;;5044284;28;20213;-75
2023/03/01 09:41:12;;;;;;;14.55;9.02;;;;;;;;;;5043510;28;20214;-74
2023/03/01 09:43:43;;;;;;;10.20;8.30;;;;;;;;;;5050122;28;20576;-74
2023/03/01 09:46:11;;;;;;;11.02;8.38;;;;;;;;;;5049135;28;20209;-74
2023/03/01 09:48:41;;;;;;;12.27;8.48;;;;;;;;;;5050181;28;20202;-74
2023/03/01 09:51:10;;;;;;;12.88;8.05;;;;;;;;;;5049700;28;20221;-74
2023/03/01 09:53:39;;;;;;;10.63;8.27;;;;;;;;;;5050762;28;20197;-75
2023/03/01 09:56:12;;;;;;;10.60;8.32;;;;;;;;;;5050316;28;20683;-74
2023/03/01 09:58:44;;;;;;;14.50;8.63;;;;;;;;;;5052017;28;20183;-75
2023/03/01 10:01:27;;;;;;;13.13;7.75;;;;;;;;;;5047199;28;20285;-74
2023/03/01 10:04:02;;;;;;;15.82;8.80;;;;;;;;;;5041761;28;20281;-74
2023/03/01 10:06:30;;;;;;;16.40;8.02;;;;;;;;;;5048546;28;20669;-74
2023/03/01 10:09:00;;;;;;;9.82;7.85;;;;;;;;;;5038973;28;20224;-74
2023/03/01 10:11:28;;;;;;;16.00;8.27;;;;;;;;;;5050847;28;20193;-74
2023/03/01 10:14:02;;;;;;;14.48;8.95;;;;;;;;;;5048660;28;20202;-74
2023/03/01 10:16:35;;;;;;;10.63;7.55;;;;;;;;;;5051030;28;20198;-74
2023/03/01 10:19:04;;;;;;;13.73;8.65;;;;;;;;;;5046370;28;20692;-74
2023/03/01 10:21:32;;;;;;;15.60;9.40;;;;;;;;;;5050533;28;20605;-74
2023/03/01 10:24:10;;;;;;;13.07;8.18;;;;;;;;;;5049945;28;20316;-74
2023/03/01 10:26:41;;;;;;;11.80;7.70;;;;;;;;;;5051630;28;20198;-74
2023/03/01 10:29:09;;;;;;;10.80;8.30;;;;;;;;;;5049437;28;20205;-74
2023/03/01 10:31:42;;;;;;;20.30;9.65;;;;;;;;;;5051205;28;20207;-74
2023/03/01 10:34:11;;;;;;;12.23;9.27;;;;;;;;;;5049865;28;20767;-74
2023/03/01 10:36:39;;;;;;;11.10;8.05;;;;;;;;;;5051692;28;20597;-74
2023/03/01 10:39:14;;;;;;;12.13;7.80;;;;;;;;;;5051190;28;20213;-74
2023/03/01 10:41:46;;;;;;;12.10;8.05;;;;;;;;;;5049199;28;20226;-74
2023/03/01 10:44:33;;;;;;;13.55;8.82;;;;;;;;;;5049916;28;20202;-74
2023/03/01 10:47:02;;;;;;;15.07;8.85;;;;;;;;;;5050489;28;20671;-73
2023/03/01 10:49:29;;;;;;;11.27;7.50;;;;;;;;;;5049427;28;20197;-72
2023/03/01 10:51:56;;;;;;;11.55;8.25;;;;;;;;;;5041248;28;20722;-74
2023/03/01 10:54:25;;;;;;;14.52;8.60;;;;;;;;;;5051426;28;20198;-74
2023/03/01 10:56:53;;;;;;;11.13;8.18;;;;;;;;;;5038642;28;20195;-74
2023/03/01 10:59:24;;;;;;;11.73;7.60;;;;;;;;;;5050228;28;20572;-74
2023/03/01 11:02:03;;;;;;;12.63;10.02;;;;;;;;;;5050751;28;20219;-73
2023/03/01 11:04:31;;;;;;;10.93;7.78;;;;;;;;;;5051264;28;20212;-73
2023/03/01 11:07:02;;;;;;;13.00;7.80;;;;;;;;;;5047709;28;20659;-73
2023/03/01 11:09:37;;;;;;;13.48;8.45;;;;;;;;;;5051749;28;20221;-73
2023/03/01 11:12:05;;;;;;;13.13;8.77;;;;;;;;;;5049466;28;20219;-74
2023/03/01 11:14:34;;;;;;;10.20;7.40;;;;;;;;;;5050815;28;20402;-73
2023/03/01 11:17:03;;;;;;;11.57;8.30;;;;;;;;;;5041584;28;20202;-73
2023/03/01 11:19:31;;;;;;;12.68;7.93;;;;;;;;;;5044295;28;20213;-74
2023/03/01 11:22:01;;;;;;;10.10;7.45;;;;;;;;;;5048082;28;20229;-73
2023/03/01 11:24:31;;;;;;;10.80;7.85;;;;;;;;;;5051025;28;20233;-72
2023/03/01 11:27:01;;;;;;;13.85;7.90;;;;;;;;;;5053112;28;20202;-71
2023/03/01 11:29:31;;;;;;;16.27;7.97;;;;;;;;;;5043883;28;20199;-72
2023/03/01 11:32:00;;;;;;;14.98;8.25;;;;;;;;;;5053509;28;20464;-71
2023/03/01 11:34:33;;;;;;;14.57;7.40;;;;;;;;;;5054588;28;20562;-72
2023/03/01 11:37:04;;;;;;;14.60;8.55;;;;;;;;;;5053603;28;20203;-71
2023/03/01 11:39:34;;;;;;;13.95;9.48;;;;;;;;;;5048040;28;20201;-72
2023/03/01 11:42:06;;;;;;;14.75;8.77;;;;;;;;;;5046497;28;20214;-71
2023/03/01 11:44:34;;;;;;;12.90;8.80;;;;;;;;;;5046394;28;20206;-71
2023/03/01 11:47:20;;;;;;;14.30;8.93;;;;;;;;;;5052865;28;20208;-72
2023/03/01 11:50:03;;;;;;;11.00;7.00;;;;;;;;;;5059974;28;20851;-72
2023/03/01 11:52:36;;;;;;;11.13;7.68;;;;;;;;;;5073926;28;20228;-71
2023/03/01 11:55:14;;;;;;;14.95;7.78;;;;;;;;;;5060191;28;20198;-71
2023/03/01 11:57:46;;;;;;;12.45;7.20;;;;;;;;;;5053208;28;20198;-71
2023/03/01 12:00:19;;;;;;;14.13;8.52;;;;;;;;;;5049292;28;20194;-73
2023/03/01 12:03:01;;;;;;;13.80;9.45;;;;;;;;;;5053667;28;20396;-71
2023/03/01 12:05:40;;;;;;;13.98;7.50;;;;;;;;;;5050484;28;20190;-71
2023/03/01 12:08:12;;;;;;;11.15;7.28;;;;;;;;;;5054214;28;20205;-71
2023/03/01 12:10:44;;;;;;;15.98;9.20;;;;;;;;;;5047050;28;20217;-71
2023/03/01 12:13:20;;;;;;;10.73;7.10;;;;;;;;;;5059918;22;20231;-71
2023/03/01 12:15:55;;;;;;;11.02;6.63;;;;;;;;;;5052675;28;20202;-72
2023/03/01 12:18:40;;;;;;;10.70;8.18;;;;;;;;;;5045924;28;20190;-73
2023/03/01 12:21:15;;;;;;;11.50;7.78;;;;;;;;;;5043871;28;20199;-73
2023/03/01 12:23:53;;;;;;;11.38;7.13;;;;;;;;;;5052224;28;20218;-72
2023/03/01 12:26:23;;;;;;;10.77;7.80;;;;;;;;;;5051852;28;20201;-72
2023/03/01 12:28:53;;;;;;;12.18;7.95;;;;;;;;;;5051044;28;20207;-72
2023/03/01 12:31:33;;;;;;;10.40;7.32;;;;;;;;;;5051638;28;20198;-73
2023/03/01 12:34:03;;;;;;;11.40;7.97;;;;;;;;;;5052285;28;20233;-76
2023/03/01 12:36:41;;;;;;;10.32;7.15;;;;;;;;;;5052523;28;20194;-75
2023/03/01 12:39:14;;;;;;;13.00;7.20;;;;;;;;;;5053618;28;20197;-75
2023/03/01 12:41:56;;;;;;;9.13;6.68;;;;;;;;;;5050407;28;20206;-75
2023/03/01 12:44:32;;;;;;;12.52;8.18;;;;;;;;;;5054619;28;20202;-75
2023/03/01 12:47:11;;;;;;;11.77;8.18;;;;;;;;;;5047535;28;20206;-74
2023/03/01 12:49:40;;;;;;;11.45;7.35;;;;;;;;;;5044588;28;20190;-76
2023/03/01 12:52:11;;;;;;;13.25;8.50;;;;;;;;;;5050650;28;20579;-74
2023/03/01 12:54:40;;;;;;;9.77;6.65;;;;;;;;;;5050236;28;20563;-75
2023/03/01 12:57:13;;;;;;;13.30;8.02;;;;;;;;;;5051679;28;20199;-76
2023/03/01 12:59:41;;;;;;;10.55;7.20;;;;;;;;;;5048964;28;20577;-76
2023/03/01 13:02:15;;;;;;;15.07;8.32;;;;;;;;;;5044012;28;20676;-75
2023/03/01 13:04:49;;;;;;;10.30;7.90;;;;;;;;;;5042761;28;20564;-75
2023/03/01 13:07:20;;;;;;;11.05;7.70;;;;;;;;;;5048712;28;20194;-76
2023/03/01 13:09:51;;;;;;;14.55;8.05;;;;;;;;;;5050341;28;20201;-76
2023/03/01 13:12:48;;;;;;;9.50;6.80;;;;;;;;;;5051722;28;20253;-73
2023/03/01 13:15:28;;;;;;;11.57;7.78;;;;;;;;;;4962359;28;20193;-75
2023/03/01 13:17:55;;;;;;;7.68;6.03;;;;;;;;;;5032166;28;20214;-76
2023/03/01 13:20:24;;;;;;;13.38;7.65;;;;;;;;;;5050558;28;20191;-74
2023/03/01 13:23:02;;;;;;;15.95;7.03;;;;;;;;;;5048625;28;20680;-76
2023/03/01 13:25:30;;;;;;;11.65;7.50;;;;;;;;;;5045784;28;20195;-74
2023/03/01 13:28:30;;;;;;;11.48;7.22;;;;;;;;;;5047975;28;20202;-75
2023/03/01 13:30:57;;;;;;;10.93;7.90;;;;;;;;;;5047683;28;20203;-75
2023/03/01 13:33:44;;;;;;;11.15;8.27;;;;;;;;;;5048362;28;20703;-76
2023/03/01 13:36:13;;;;;;;13.07;8.00;;;;;;;;;;5046317;28;20191;-76
2023/03/01 13:38:47;;;;;;;15.35;8.32;;;;;;;;;;5032487;28;20231;-72
2023/03/01 13:41:16;;;;;;;10.07;6.63;;;;;;;;;;5032318;28;20203;-73
2023/03/01 13:43:44;;;;;;;12.98;7.80;;;;;;;;;;5032835;28;20227;-73
2023/03/01 13:46:13;;;;;;;11.38;7.63;;;;;;;;;;5041650;28;20309;-76
2023/03/01 13:48:41;;;;;;;10.85;7.22;;;;;;;;;;5040837;28;20199;-76
2023/03/01 13:51:10;;;;;;;13.93;8.20;;;;;;;;;;5051234;28;20199;-76
2023/03/01 13:53:38;;;;;;;14.18;7.82;;;;;;;;;;5031708;28;20647;-76
2023/03/01 13:56:09;;;;;;;12.30;7.20;;;;;;;;;;5032242;28;20668;-76
2023/03/01 13:58:47;;;;;;;8.00;6.63;;;;;;;;;;5032303;28;20207;-75
2023/03/01 14:01:21;;;;;;;12.18;7.93;;;;;;;;;;5031852;28;20557;-76
2023/03/01 14:03:49;;;;;;;11.45;7.45;;;;;;;;;;5032113;28;20223;-76
2023/03/01 14:06:18;;;;;;;9.35;6.82;;;;;;;;;;5032081;28;20254;-75
2023/03/01 14:08:46;;;;;;;9.50;6.80;;;;;;;;;;5032912;28;20616;-76
2023/03/01 14:11:30;;;;;;;9.77;7.18;;;;;;;;;;5031832;28;20673;-76
2023/03/01 14:14:28;;;;;;;9.00;6.30;;;;;;;;;;5037573;28;20225;-75
2023/03/01 14:17:00;;;;;;;11.43;7.05;;;;;;;;;;4970751;28;20209;-76
2023/03/01 14:19:28;;;;;;;8.52;6.90;;;;;;;;;;5037474;28;20206;-75
2023/03/01 14:22:14;;;;;;;11.98;6.55;;;;;;;;;;5049294;28;20218;-75
2023/03/01 14:24:46;;;;;;;9.65;6.40;;;;;;;;;;5052170;28;20209;-76
2023/03/01 14:27:13;;;;;;;11.40;6.43;;;;;;;;;;5032914;28;20581;-76
2023/03/01 14:29:41;;;;;;;10.38;6.10;;;;;;;;;;5031699;28;20199;-76
2023/03/01 14:32:20;;;;;;;10.60;6.40;;;;;;;;;;5030116;28;20222;-76
2023/03/01 14:34:47;;;;;;;9.48;6.50;;;;;;;;;;5032155;28;20195;-76
2023/03/01 14:37:21;;;;;;;9.65;6.32;;;;;;;;;;5032124;28;20204;-74
2023/03/01 14:39:48;;;;;;;7.45;6.60;;;;;;;;;;5031751;28;20579;-75
2023/03/01 14:42:15;;;;;;;10.75;7.15;;;;;;;;;;5051060;28;20606;-75
2023/03/01 14:44:43;;;;;;;12.90;7.03;;;;;;;;;;5051555;28;20195;-76
2023/03/01 14:47:13;;;;;;;11.10;6.50;;;;;;;;;;5051329;28;20206;-76